Time;durP1;ratioP1;P1;durP2;ratioP2;P2;SDS_P1;SDS_P2;PMS_P1;PMS_P2;Temp;Humidity;BMP_temperature;BMP_pressure;BME280_temperature;BME280_humidity;BME280_pressure;Samples;Min_cycle;Max_cycle;Signal;HPM_P1;HPM_P2
2021/03/24 00:00:51;;;;;;;18.80;15.53;;;;;;;;;;5107849;28;21187;-43
2021/03/24 00:03:17;;;;;;;16.57;14.30;;;;;;;;;;5107318;28;20602;-42
2021/03/24 00:05:44;;;;;;;19.20;16.43;;;;;;;;;;5105857;28;20177;-43
2021/03/24 00:08:09;;;;;;;17.40;15.60;;;;;;;;;;5107001;28;20395;-42
2021/03/24 00:10:35;;;;;;;20.30;16.50;;;;;;;;;;5106736;28;21083;-42
2021/03/24 00:13:01;;;;;;;19.40;14.77;;;;;;;;;;5104287;28;20179;-43
2021/03/24 00:15:26;;;;;;;16.73;14.60;;;;;;;;;;5106090;28;20184;-42
2021/03/24 00:17:52;;;;;;;19.50;15.43;;;;;;;;;;5101391;28;20699;-43
2021/03/24 00:20:19;;;;;;;20.33;15.80;;;;;;;;;;5106212;28;20178;-43
2021/03/24 00:22:44;;;;;;;18.50;15.83;;;;;;;;;;5106493;27;20651;-47
2021/03/24 00:25:12;;;;;;;19.40;15.63;;;;;;;;;;5101910;28;20622;-43
2021/03/24 00:27:37;;;;;;;20.03;16.67;;;;;;;;;;5105492;28;20262;-43
2021/03/24 00:30:03;;;;;;;20.07;17.27;;;;;;;;;;5106711;28;20691;-43
2021/03/24 00:32:28;;;;;;;19.40;17.03;;;;;;;;;;5107221;28;20208;-42
2021/03/24 00:34:53;;;;;;;21.67;17.10;;;;;;;;;;5100827;28;20172;-42
2021/03/24 00:37:18;;;;;;;19.47;15.87;;;;;;;;;;5107700;28;20514;-43
2021/03/24 00:39:43;;;;;;;19.43;16.37;;;;;;;;;;5106091;28;20341;-44
2021/03/24 00:42:09;;;;;;;20.98;16.35;;;;;;;;;;5104041;28;20186;-42
2021/03/24 00:44:34;;;;;;;20.10;17.83;;;;;;;;;;5108505;28;20183;-42
2021/03/24 00:46:59;;;;;;;19.23;15.97;;;;;;;;;;5105951;28;20184;-42
2021/03/24 00:49:25;;;;;;;20.07;16.73;;;;;;;;;;5107209;28;20520;-42
2021/03/24 00:51:50;;;;;;;20.83;16.33;;;;;;;;;;5106366;28;20296;-43
2021/03/24 00:54:16;;;;;;;21.67;17.90;;;;;;;;;;5106926;28;21529;-42
2021/03/24 00:56:41;;;;;;;20.10;16.90;;;;;;;;;;5104903;28;20623;-42
2021/03/24 00:59:06;;;;;;;19.63;16.97;;;;;;;;;;5104726;28;20184;-42
2021/03/24 01:01:31;;;;;;;19.60;16.20;;;;;;;;;;5102856;28;20633;-43
2021/03/24 01:03:56;;;;;;;22.60;17.53;;;;;;;;;;5107447;28;20850;-42
2021/03/24 01:06:21;;;;;;;21.08;16.85;;;;;;;;;;5104799;28;20269;-43
2021/03/24 01:08:47;;;;;;;22.75;18.98;;;;;;;;;;5102045;28;20216;-42
2021/03/24 01:11:12;;;;;;;21.27;16.30;;;;;;;;;;5103905;28;20561;-43
2021/03/24 01:13:37;;;;;;;21.38;17.75;;;;;;;;;;5107832;28;20521;-43
2021/03/24 01:16:02;;;;;;;20.67;17.10;;;;;;;;;;5106970;28;20183;-43
2021/03/24 01:18:28;;;;;;;20.50;17.37;;;;;;;;;;5108240;28;20174;-43
2021/03/24 01:20:53;;;;;;;21.93;17.93;;;;;;;;;;5106537;28;20171;-42
2021/03/24 01:23:18;;;;;;;18.63;15.67;;;;;;;;;;5106595;28;20244;-43
2021/03/24 01:25:43;;;;;;;19.30;16.80;;;;;;;;;;5107850;28;20825;-43
2021/03/24 01:28:10;;;;;;;21.33;17.73;;;;;;;;;;5112329;28;20203;-42
2021/03/24 01:30:36;;;;;;;19.00;16.50;;;;;;;;;;5100976;28;21957;-43
2021/03/24 01:33:01;;;;;;;22.30;17.70;;;;;;;;;;5107564;28;20580;-43
2021/03/24 01:35:27;;;;;;;19.10;16.67;;;;;;;;;;5107754;28;20192;-43
2021/03/24 01:37:52;;;;;;;20.80;16.20;;;;;;;;;;5106947;28;20636;-43
2021/03/24 01:40:24;;;;;;;19.20;16.87;;;;;;;;;;5103723;28;20253;-43
2021/03/24 01:42:50;;;;;;;22.37;17.47;;;;;;;;;;5103450;28;20189;-43
2021/03/24 01:45:15;;;;;;;19.80;17.07;;;;;;;;;;5106511;28;20601;-43
2021/03/24 01:47:40;;;;;;;24.23;17.95;;;;;;;;;;5107308;28;20633;-43
2021/03/24 01:50:12;;;;;;;23.07;17.67;;;;;;;;;;5111621;28;20181;-43
2021/03/24 01:52:37;;;;;;;20.97;17.77;;;;;;;;;;5105127;28;20198;-43
2021/03/24 01:55:03;;;;;;;21.20;17.52;;;;;;;;;;5106097;28;20747;-42
2021/03/24 01:57:28;;;;;;;19.20;16.40;;;;;;;;;;5107156;28;20176;-43
2021/03/24 01:59:54;;;;;;;20.70;17.40;;;;;;;;;;5107565;28;20169;-43
2021/03/24 02:02:29;;;;;;;20.90;18.03;;;;;;;;;;5103795;28;20170;-43
2021/03/24 02:04:54;;;;;;;20.40;17.20;;;;;;;;;;5107327;28;20726;-43
2021/03/24 02:07:29;;;;;;;20.50;16.67;;;;;;;;;;5102106;28;20697;-43
2021/03/24 02:09:57;;;;;;;21.30;17.60;;;;;;;;;;5103919;28;20192;-43
2021/03/24 02:12:27;;;;;;;19.10;15.70;;;;;;;;;;5106627;28;20664;-43
2021/03/24 02:14:55;;;;;;;21.03;18.20;;;;;;;;;;5109669;28;20591;-43
2021/03/24 02:17:22;;;;;;;23.60;17.33;;;;;;;;;;5105663;28;20603;-43
2021/03/24 02:20:03;;;;;;;22.13;17.27;;;;;;;;;;5104034;28;20607;-43
2021/03/24 02:22:30;;;;;;;19.90;16.53;;;;;;;;;;5094959;28;20632;-43
2021/03/24 02:25:02;;;;;;;22.20;16.77;;;;;;;;;;5102637;27;20694;-43
2021/03/24 02:27:35;;;;;;;21.23;17.37;;;;;;;;;;5110095;28;20604;-43
2021/03/24 02:30:06;;;;;;;22.13;17.10;;;;;;;;;;5106451;28;20693;-44
2021/03/24 02:32:33;;;;;;;22.33;18.70;;;;;;;;;;5106409;28;21267;-43
2021/03/24 02:35:01;;;;;;;22.43;17.10;;;;;;;;;;5109177;28;21129;-43
2021/03/24 02:37:27;;;;;;;24.37;17.90;;;;;;;;;;5109755;28;20609;-44
2021/03/24 02:39:53;;;;;;;23.13;17.17;;;;;;;;;;5107650;28;21191;-43
2021/03/24 02:42:18;;;;;;;20.10;17.20;;;;;;;;;;5109694;28;20231;-44
2021/03/24 02:44:44;;;;;;;22.57;18.70;;;;;;;;;;5108116;28;21144;-43
2021/03/24 02:47:09;;;;;;;21.30;16.90;;;;;;;;;;5110523;28;20179;-43
2021/03/24 02:49:35;;;;;;;22.40;17.60;;;;;;;;;;5107378;27;20184;-43
2021/03/24 02:52:01;;;;;;;23.67;19.00;;;;;;;;;;5109201;28;20199;-43
2021/03/24 02:54:29;;;;;;;21.03;16.57;;;;;;;;;;5108275;28;20637;-42
2021/03/24 02:56:54;;;;;;;23.03;17.60;;;;;;;;;;5108733;28;20194;-43
2021/03/24 02:59:20;;;;;;;21.30;18.07;;;;;;;;;;5109793;28;20648;-43
2021/03/24 03:02:09;;;;;;;21.17;17.37;;;;;;;;;;5110110;28;20177;-43
2021/03/24 03:04:54;;;;;;;22.00;17.67;;;;;;;;;;5099105;28;20605;-43
2021/03/24 03:07:39;;;;;;;20.90;17.27;;;;;;;;;;5108998;28;20611;-43
2021/03/24 03:10:07;;;;;;;22.67;18.57;;;;;;;;;;5103299;28;20648;-43
2021/03/24 03:12:52;;;;;;;21.57;17.10;;;;;;;;;;5107894;28;20653;-43
2021/03/24 03:15:22;;;;;;;21.23;18.33;;;;;;;;;;5101829;28;20599;-42
2021/03/24 03:17:49;;;;;;;21.93;18.03;;;;;;;;;;5109462;28;20590;-43
2021/03/24 03:20:17;;;;;;;23.00;18.03;;;;;;;;;;5108357;28;20603;-43
2021/03/24 03:22:44;;;;;;;22.13;17.80;;;;;;;;;;5102291;28;20628;-42
2021/03/24 03:25:09;;;;;;;25.80;19.17;;;;;;;;;;5101796;28;20588;-42
2021/03/24 03:27:35;;;;;;;20.83;18.00;;;;;;;;;;5109152;28;21243;-42
2021/03/24 03:30:02;;;;;;;20.80;17.73;;;;;;;;;;5097449;28;20178;-43
2021/03/24 03:32:29;;;;;;;20.40;17.63;;;;;;;;;;5104478;28;20213;-42
2021/03/24 03:34:56;;;;;;;24.80;18.77;;;;;;;;;;5108468;28;20948;-42
2021/03/24 03:37:23;;;;;;;21.70;18.70;;;;;;;;;;5108587;28;20610;-42
2021/03/24 03:39:48;;;;;;;24.13;19.00;;;;;;;;;;5109632;28;20622;-42
2021/03/24 03:42:14;;;;;;;25.30;18.70;;;;;;;;;;5109718;28;20603;-43
2021/03/24 03:44:39;;;;;;;23.70;18.90;;;;;;;;;;5108716;28;20212;-43
2021/03/24 03:47:06;;;;;;;23.90;18.20;;;;;;;;;;5103036;28;20179;-43
2021/03/24 03:49:32;;;;;;;24.53;18.43;;;;;;;;;;5104620;28;20186;-41
2021/03/24 03:52:06;;;;;;;21.40;17.70;;;;;;;;;;5099530;28;20638;-42
2021/03/24 03:54:32;;;;;;;22.00;18.63;;;;;;;;;;5108850;28;20213;-42
2021/03/24 03:57:10;;;;;;;24.92;19.38;;;;;;;;;;5107138;28;21185;-42
2021/03/24 03:59:42;;;;;;;25.47;19.13;;;;;;;;;;5089890;28;20690;-42
2021/03/24 04:02:10;;;;;;;21.27;18.13;;;;;;;;;;5105330;28;20940;-43
2021/03/24 04:04:45;;;;;;;29.20;18.10;;;;;;;;;;5104329;28;20666;-42
2021/03/24 04:07:17;;;;;;;24.10;18.30;;;;;;;;;;5104741;28;20602;-41
2021/03/24 04:09:43;;;;;;;23.07;18.50;;;;;;;;;;5108960;28;20761;-42
2021/03/24 04:12:11;;;;;;;22.80;18.30;;;;;;;;;;5108480;28;21308;-42
2021/03/24 04:14:38;;;;;;;25.20;19.50;;;;;;;;;;5108725;28;21169;-42
2021/03/24 04:17:04;;;;;;;22.47;17.90;;;;;;;;;;5106168;28;20580;-43
2021/03/24 04:19:32;;;;;;;24.30;19.33;;;;;;;;;;5105667;28;20599;-42
2021/03/24 04:21:58;;;;;;;24.60;20.03;;;;;;;;;;5103736;28;20188;-42
2021/03/24 04:24:25;;;;;;;21.37;18.50;;;;;;;;;;5105021;28;20656;-42
2021/03/24 04:26:53;;;;;;;23.20;18.20;;;;;;;;;;5107699;28;20594;-42
2021/03/24 04:29:19;;;;;;;24.10;19.03;;;;;;;;;;5108154;28;20602;-42
2021/03/24 04:31:50;;;;;;;23.17;18.03;;;;;;;;;;5106964;28;20637;-42
2021/03/24 04:34:15;;;;;;;23.93;18.73;;;;;;;;;;5108250;28;20684;-42
2021/03/24 04:36:43;;;;;;;23.47;18.40;;;;;;;;;;5099590;28;20703;-43
2021/03/24 04:39:20;;;;;;;23.67;17.97;;;;;;;;;;5100534;28;20196;-43
2021/03/24 04:41:46;;;;;;;23.53;18.27;;;;;;;;;;5101244;28;20991;-43
2021/03/24 04:44:15;;;;;;;24.77;20.00;;;;;;;;;;5112211;27;20694;-42
2021/03/24 04:46:41;;;;;;;25.40;19.23;;;;;;;;;;5105281;28;20612;-43
2021/03/24 04:49:15;;;;;;;24.90;17.90;;;;;;;;;;5103787;28;20609;-42
2021/03/24 04:51:41;;;;;;;21.70;17.30;;;;;;;;;;5103616;28;20657;-42
2021/03/24 04:54:13;;;;;;;23.50;18.17;;;;;;;;;;5105247;28;20595;-42
2021/03/24 04:56:39;;;;;;;24.50;19.67;;;;;;;;;;5106041;28;20325;-42
2021/03/24 04:59:04;;;;;;;26.80;20.13;;;;;;;;;;5105300;28;21216;-42
2021/03/24 05:01:38;;;;;;;25.10;19.30;;;;;;;;;;5102564;28;20172;-43
2021/03/24 05:04:22;;;;;;;26.30;19.33;;;;;;;;;;5103168;28;20171;-49
2021/03/24 05:06:50;;;;;;;25.40;19.83;;;;;;;;;;5102123;28;20659;-42
2021/03/24 05:09:15;;;;;;;22.67;18.40;;;;;;;;;;5105894;28;20668;-41
2021/03/24 05:11:46;;;;;;;25.50;19.87;;;;;;;;;;5108034;28;20643;-42
2021/03/24 05:14:23;;;;;;;24.10;19.27;;;;;;;;;;5108176;28;20673;-42
2021/03/24 05:16:49;;;;;;;23.63;19.70;;;;;;;;;;5106848;28;20602;-43
2021/03/24 05:19:22;;;;;;;24.97;19.50;;;;;;;;;;5106527;28;20647;-41
2021/03/24 05:21:47;;;;;;;22.73;18.90;;;;;;;;;;5105257;28;20587;-41
2021/03/24 05:24:13;;;;;;;27.13;20.97;;;;;;;;;;5102554;28;20616;-42
2021/03/24 05:26:40;;;;;;;25.03;19.57;;;;;;;;;;5106501;28;20253;-42
2021/03/24 05:29:08;;;;;;;24.27;19.90;;;;;;;;;;5105076;28;20183;-42
2021/03/24 05:31:35;;;;;;;23.03;18.50;;;;;;;;;;5105475;28;20685;-42
2021/03/24 05:34:03;;;;;;;24.70;18.50;;;;;;;;;;5105066;28;20962;-42
2021/03/24 05:36:34;;;;;;;24.00;19.00;;;;;;;;;;5102528;28;20601;-44
2021/03/24 05:39:08;;;;;;;27.20;20.50;;;;;;;;;;5104258;28;21215;-43
2021/03/24 05:41:39;;;;;;;27.70;18.57;;;;;;;;;;5103770;28;20611;-43
2021/03/24 05:44:04;;;;;;;24.23;18.30;;;;;;;;;;5107762;28;20586;-43
2021/03/24 05:46:48;;;;;;;25.10;18.90;;;;;;;;;;5108202;28;20708;-43
2021/03/24 05:49:20;;;;;;;25.57;19.10;;;;;;;;;;5111451;27;20179;-43
2021/03/24 05:51:57;;;;;;;24.93;18.97;;;;;;;;;;5113514;27;20631;-44
2021/03/24 05:54:31;;;;;;;24.90;18.83;;;;;;;;;;5108545;28;20697;-43
2021/03/24 05:57:03;;;;;;;26.90;18.23;;;;;;;;;;5105442;28;20742;-43
2021/03/24 05:59:28;;;;;;;26.60;18.23;;;;;;;;;;5100958;28;20595;-43
2021/03/24 06:01:56;;;;;;;22.40;18.13;;;;;;;;;;5106748;28;20597;-43
2021/03/24 06:04:27;;;;;;;24.63;18.97;;;;;;;;;;5107138;28;20906;-43
2021/03/24 06:07:06;;;;;;;21.50;17.17;;;;;;;;;;5108016;28;20599;-42
2021/03/24 06:09:52;;;;;;;20.73;17.00;;;;;;;;;;5107229;28;20599;-42
2021/03/24 06:12:28;;;;;;;20.77;17.37;;;;;;;;;;5075701;28;20746;-43
2021/03/24 06:15:12;;;;;;;21.10;17.07;;;;;;;;;;5107323;28;20599;-42
2021/03/24 06:17:40;;;;;;;21.53;17.97;;;;;;;;;;5106905;28;22199;-43
2021/03/24 06:20:29;;;;;;;22.10;17.00;;;;;;;;;;5109559;28;20596;-42
2021/03/24 06:23:15;;;;;;;23.93;17.83;;;;;;;;;;5105040;28;21148;-41
2021/03/24 06:25:44;;;;;;;23.80;17.77;;;;;;;;;;5108978;28;20597;-47
2021/03/24 06:28:17;;;;;;;21.20;16.63;;;;;;;;;;5105442;28;20600;-42
2021/03/24 06:31:01;;;;;;;22.73;17.77;;;;;;;;;;5095777;27;20890;-42
2021/03/24 06:33:39;;;;;;;20.87;17.40;;;;;;;;;;5113674;27;20627;-43
2021/03/24 06:36:11;;;;;;;22.90;17.30;;;;;;;;;;5111019;28;20591;-43
2021/03/24 06:38:45;;;;;;;25.50;18.70;;;;;;;;;;5110693;28;20686;-44
2021/03/24 06:41:29;;;;;;;28.80;19.60;;;;;;;;;;5111018;28;20626;-43
2021/03/24 06:44:13;;;;;;;22.07;18.07;;;;;;;;;;5110915;28;20608;-43
2021/03/24 06:46:47;;;;;;;23.33;17.57;;;;;;;;;;5110901;28;20732;-43
2021/03/24 06:49:31;;;;;;;26.07;19.37;;;;;;;;;;5109467;28;20610;-43
2021/03/24 06:52:16;;;;;;;22.90;17.80;;;;;;;;;;5110232;28;20764;-43
2021/03/24 06:54:56;;;;;;;21.63;16.90;;;;;;;;;;5109014;28;20658;-43
2021/03/24 06:57:30;;;;;;;21.00;16.10;;;;;;;;;;5109929;28;20964;-42
2021/03/24 07:00:10;;;;;;;23.07;17.27;;;;;;;;;;5104882;27;20614;-44
2021/03/24 07:02:54;;;;;;;23.03;18.40;;;;;;;;;;5107100;28;21179;-43
2021/03/24 07:05:34;;;;;;;22.30;18.80;;;;;;;;;;5105830;28;20609;-44
2021/03/24 07:08:17;;;;;;;24.23;19.70;;;;;;;;;;5105802;28;20640;-44
2021/03/24 07:10:45;;;;;;;23.40;19.47;;;;;;;;;;5103937;28;21044;-43
2021/03/24 07:13:24;;;;;;;24.00;19.17;;;;;;;;;;5103172;28;20599;-42
2021/03/24 07:16:15;;;;;;;24.83;18.40;;;;;;;;;;5105346;28;20762;-43
2021/03/24 07:18:45;;;;;;;22.63;18.50;;;;;;;;;;5060649;28;20605;-43
2021/03/24 07:21:21;;;;;;;24.47;20.30;;;;;;;;;;5105167;28;20758;-42
2021/03/24 07:24:02;;;;;;;25.57;18.60;;;;;;;;;;5106169;28;20655;-43
2021/03/24 07:26:52;;;;;;;25.33;19.00;;;;;;;;;;5102919;28;20686;-43
2021/03/24 07:29:30;;;;;;;26.37;19.63;;;;;;;;;;5105531;28;20606;-44
2021/03/24 07:32:01;;;;;;;26.37;20.23;;;;;;;;;;5106332;28;20650;-44
2021/03/24 07:34:38;;;;;;;28.20;21.10;;;;;;;;;;5114652;27;20687;-43
2021/03/24 07:37:09;;;;;;;28.30;20.50;;;;;;;;;;5102648;28;20939;-43
2021/03/24 07:39:37;;;;;;;26.13;21.37;;;;;;;;;;5104722;28;20599;-43
2021/03/24 07:42:17;;;;;;;24.70;20.13;;;;;;;;;;5105804;28;20629;-41
2021/03/24 07:44:57;;;;;;;24.53;20.07;;;;;;;;;;5105289;28;20599;-43
2021/03/24 07:47:25;;;;;;;24.73;20.83;;;;;;;;;;5106126;28;20591;-43
2021/03/24 07:50:00;;;;;;;27.43;23.50;;;;;;;;;;5107424;27;20605;-42
2021/03/24 07:52:28;;;;;;;26.43;22.00;;;;;;;;;;5108307;27;20758;-42
2021/03/24 07:55:00;;;;;;;28.03;21.93;;;;;;;;;;5108869;27;21215;-44
2021/03/24 07:57:45;;;;;;;29.90;23.10;;;;;;;;;;5109749;27;20595;-44
2021/03/24 08:00:11;;;;;;;30.90;22.67;;;;;;;;;;5108726;27;20614;-42
2021/03/24 08:02:44;;;;;;;26.43;22.83;;;;;;;;;;5091470;28;20605;-42
2021/03/24 08:05:18;;;;;;;26.00;22.57;;;;;;;;;;5108222;28;20547;-43
2021/03/24 08:07:46;;;;;;;30.00;23.80;;;;;;;;;;5103933;28;20597;-43
2021/03/24 08:10:24;;;;;;;28.20;22.67;;;;;;;;;;5105068;27;21210;-42
2021/03/24 08:13:06;;;;;;;25.73;22.10;;;;;;;;;;5109376;28;20662;-42
2021/03/24 08:15:53;;;;;;;27.00;23.00;;;;;;;;;;5114760;27;20610;-42
2021/03/24 08:18:37;;;;;;;24.53;20.30;;;;;;;;;;5109008;28;20668;-42
2021/03/24 08:21:15;;;;;;;27.53;23.17;;;;;;;;;;5106039;28;20585;-42
2021/03/24 08:23:47;;;;;;;30.00;23.90;;;;;;;;;;5108775;28;20600;-44
2021/03/24 08:26:13;;;;;;;30.77;23.97;;;;;;;;;;5109115;28;20642;-43
2021/03/24 08:28:46;;;;;;;30.40;24.00;;;;;;;;;;5109407;28;20627;-43
2021/03/24 08:31:20;;;;;;;28.10;23.40;;;;;;;;;;5108636;28;20284;-43
2021/03/24 08:33:53;;;;;;;33.80;23.20;;;;;;;;;;5102263;28;20599;-43
2021/03/24 08:36:31;;;;;;;31.60;24.60;;;;;;;;;;5100419;28;20599;-43
2021/03/24 08:38:59;;;;;;;29.30;23.70;;;;;;;;;;5109021;28;20930;-43
2021/03/24 08:41:43;;;;;;;31.73;26.20;;;;;;;;;;5109141;28;21210;-43
2021/03/24 08:44:24;;;;;;;33.37;26.00;;;;;;;;;;5108128;28;20603;-43
2021/03/24 08:46:55;;;;;;;32.83;25.20;;;;;;;;;;5109302;28;21183;-43
2021/03/24 08:49:22;;;;;;;31.83;25.40;;;;;;;;;;5109129;28;20603;-41
2021/03/24 08:51:59;;;;;;;29.23;25.20;;;;;;;;;;5109009;28;20650;-42
2021/03/24 08:54:36;;;;;;;33.03;26.80;;;;;;;;;;5108220;28;20659;-43
2021/03/24 08:57:09;;;;;;;28.60;24.13;;;;;;;;;;5106237;28;20622;-42
2021/03/24 08:59:37;;;;;;;32.20;25.83;;;;;;;;;;5105242;28;20592;-42
2021/03/24 09:02:02;;;;;;;31.50;26.53;;;;;;;;;;5108690;28;20661;-43
2021/03/24 09:04:33;;;;;;;33.08;27.17;;;;;;;;;;5108285;28;20604;-42
2021/03/24 09:07:21;;;;;;;31.90;28.40;;;;;;;;;;5108563;28;20341;-42
2021/03/24 09:10:05;;;;;;;35.17;29.90;;;;;;;;;;5076308;28;20611;-42
2021/03/24 09:12:36;;;;;;;33.63;28.37;;;;;;;;;;5102408;28;20668;-42
2021/03/24 09:15:04;;;;;;;34.93;29.97;;;;;;;;;;5107687;28;20731;-43
2021/03/24 09:17:29;;;;;;;36.80;31.10;;;;;;;;;;5110845;28;20596;-43
2021/03/24 09:20:13;;;;;;;37.70;30.50;;;;;;;;;;5114548;28;21125;-43
2021/03/24 09:22:57;;;;;;;35.17;31.27;;;;;;;;;;5114606;28;20204;-43
2021/03/24 09:25:32;;;;;;;38.70;32.37;;;;;;;;;;5114230;28;20612;-42
2021/03/24 09:28:16;;;;;;;38.10;32.03;;;;;;;;;;5115126;28;21145;-42
2021/03/24 09:30:55;;;;;;;38.80;32.60;;;;;;;;;;5114783;28;20702;-42
2021/03/24 09:33:26;;;;;;;38.47;32.30;;;;;;;;;;5114083;28;20694;-43
2021/03/24 09:36:10;;;;;;;35.30;30.80;;;;;;;;;;5114541;28;20603;-43
2021/03/24 09:38:36;;;;;;;41.23;35.27;;;;;;;;;;5114493;28;20703;-42
2021/03/24 09:41:11;;;;;;;42.80;34.57;;;;;;;;;;5114388;27;20627;-44
2021/03/24 09:43:37;;;;;;;42.60;36.57;;;;;;;;;;5114681;28;20690;-43
2021/03/24 09:46:02;;;;;;;41.57;35.90;;;;;;;;;;5114034;28;20598;-43
2021/03/24 09:48:28;;;;;;;41.00;35.78;;;;;;;;;;5114458;28;20600;-43
2021/03/24 09:51:01;;;;;;;42.13;35.67;;;;;;;;;;5114811;28;20181;-43
2021/03/24 09:53:27;;;;;;;43.43;36.83;;;;;;;;;;5113218;28;20181;-43
2021/03/24 09:55:55;;;;;;;41.50;37.00;;;;;;;;;;5114104;28;20773;-43
2021/03/24 09:58:32;;;;;;;45.80;38.57;;;;;;;;;;5114398;28;20663;-43
2021/03/24 10:00:57;;;;;;;48.27;40.73;;;;;;;;;;5096308;28;20690;-43
2021/03/24 10:03:46;;;;;;;47.83;40.83;;;;;;;;;;5113925;28;21030;-42
2021/03/24 10:06:30;;;;;;;47.00;39.70;;;;;;;;;;5060128;28;20205;-42
2021/03/24 10:09:16;;;;;;;47.60;41.90;;;;;;;;;;5114013;28;20595;-42
2021/03/24 10:11:50;;;;;;;43.20;37.70;;;;;;;;;;5113822;28;21252;-43
2021/03/24 10:14:34;;;;;;;46.40;39.73;;;;;;;;;;5114291;28;20583;-43
2021/03/24 10:17:01;;;;;;;46.20;39.30;;;;;;;;;;5113521;28;20579;-44
2021/03/24 10:19:31;;;;;;;41.83;36.80;;;;;;;;;;5114418;28;20597;-43
2021/03/24 10:22:00;;;;;;;45.10;37.90;;;;;;;;;;5114221;28;20596;-42
2021/03/24 10:24:27;;;;;;;45.57;37.57;;;;;;;;;;5113821;28;20705;-43
2021/03/24 10:26:54;;;;;;;44.87;36.77;;;;;;;;;;5114047;28;20595;-43
2021/03/24 10:29:22;;;;;;;44.10;37.67;;;;;;;;;;5110187;28;20600;-42
2021/03/24 10:32:01;;;;;;;44.20;37.23;;;;;;;;;;5111219;28;20819;-43
2021/03/24 10:34:46;;;;;;;44.93;39.37;;;;;;;;;;5110004;28;20589;-42
2021/03/24 10:37:26;;;;;;;45.53;38.63;;;;;;;;;;5110779;28;20603;-42
2021/03/24 10:40:00;;;;;;;49.30;37.87;;;;;;;;;;5107982;28;20611;-42
2021/03/24 10:42:32;;;;;;;45.77;39.30;;;;;;;;;;5109993;28;20728;-42
2021/03/24 10:44:57;;;;;;;42.73;37.80;;;;;;;;;;5110762;28;20591;-43
2021/03/24 10:47:28;;;;;;;44.13;38.13;;;;;;;;;;5110399;28;21251;-43
2021/03/24 10:50:12;;;;;;;46.13;36.80;;;;;;;;;;5110562;28;20170;-43
2021/03/24 10:52:42;;;;;;;46.80;38.83;;;;;;;;;;5110410;28;20639;-43
2021/03/24 10:55:16;;;;;;;43.13;37.80;;;;;;;;;;5109690;28;20639;-43
2021/03/24 10:57:57;;;;;;;45.43;39.53;;;;;;;;;;5110335;28;20675;-43
2021/03/24 11:00:27;;;;;;;42.47;37.87;;;;;;;;;;5109685;28;20591;-44
2021/03/24 11:02:55;;;;;;;48.07;39.77;;;;;;;;;;5110308;28;20600;-44
2021/03/24 11:05:20;;;;;;;45.37;39.47;;;;;;;;;;5110337;28;20601;-43
2021/03/24 11:07:49;;;;;;;46.70;40.00;;;;;;;;;;5110222;28;20665;-44
2021/03/24 11:10:31;;;;;;;48.47;41.03;;;;;;;;;;5110075;28;20563;-44
2021/03/24 11:13:02;;;;;;;44.33;38.53;;;;;;;;;;5109823;28;20636;-47
2021/03/24 11:15:45;;;;;;;46.13;41.13;;;;;;;;;;5110156;28;20593;-43
2021/03/24 11:18:12;;;;;;;44.20;39.37;;;;;;;;;;5109325;28;20600;-43
2021/03/24 11:20:51;;;;;;;44.50;39.30;;;;;;;;;;5109891;28;20592;-43
2021/03/24 11:23:35;;;;;;;45.33;40.40;;;;;;;;;;5109263;28;20959;-43
2021/03/24 11:26:04;;;;;;;48.57;38.90;;;;;;;;;;5109990;28;20653;-41
2021/03/24 11:28:33;;;;;;;47.13;41.27;;;;;;;;;;5109865;28;20596;-42
2021/03/24 11:31:01;;;;;;;45.90;40.90;;;;;;;;;;5109246;28;20608;-42
2021/03/24 11:33:36;;;;;;;44.00;38.33;;;;;;;;;;5108810;28;20880;-43
2021/03/24 11:36:14;;;;;;;47.70;41.07;;;;;;;;;;5109450;28;20599;-43
2021/03/24 11:38:44;;;;;;;46.67;41.60;;;;;;;;;;5108760;28;20609;-43
2021/03/24 11:41:11;;;;;;;45.00;39.17;;;;;;;;;;5117387;27;21197;-43
2021/03/24 11:43:40;;;;;;;46.10;39.03;;;;;;;;;;5109658;28;20691;-43
2021/03/24 11:46:07;;;;;;;44.27;38.47;;;;;;;;;;5109852;28;20585;-43
2021/03/24 11:48:47;;;;;;;46.30;39.93;;;;;;;;;;5109199;28;20676;-43
2021/03/24 11:51:22;;;;;;;45.83;39.60;;;;;;;;;;5109283;28;20708;-43
2021/03/24 11:53:58;;;;;;;45.50;40.67;;;;;;;;;;5091279;28;21330;-43
2021/03/24 11:56:32;;;;;;;46.30;40.50;;;;;;;;;;5109009;28;20776;-43
2021/03/24 11:59:15;;;;;;;51.40;41.30;;;;;;;;;;5109243;28;20585;-43
2021/03/24 12:01:44;;;;;;;45.70;40.60;;;;;;;;;;5108790;28;20614;-43
2021/03/24 12:04:19;;;;;;;43.97;36.57;;;;;;;;;;5101172;28;20944;-44
2021/03/24 12:07:01;;;;;;;49.33;42.03;;;;;;;;;;5108931;28;20605;-43
2021/03/24 12:09:28;;;;;;;47.53;40.73;;;;;;;;;;5103009;28;20611;-42
2021/03/24 12:12:08;;;;;;;49.43;39.30;;;;;;;;;;5108262;28;20702;-42
2021/03/24 12:14:33;;;;;;;44.03;39.17;;;;;;;;;;5108751;28;20596;-42
2021/03/24 12:17:00;;;;;;;47.47;40.30;;;;;;;;;;5107703;28;20691;-43
2021/03/24 12:19:36;;;;;;;54.50;40.73;;;;;;;;;;5107716;28;20203;-43
2021/03/24 12:22:20;;;;;;;49.00;39.57;;;;;;;;;;5108057;28;20600;-43
2021/03/24 12:24:45;;;;;;;43.23;38.37;;;;;;;;;;5104174;28;20599;-43
2021/03/24 12:27:13;;;;;;;42.00;35.87;;;;;;;;;;5108393;28;20599;-44
2021/03/24 12:29:40;;;;;;;42.90;38.13;;;;;;;;;;5108696;28;20235;-43
2021/03/24 12:32:17;;;;;;;43.00;36.20;;;;;;;;;;5108519;28;20672;-43
2021/03/24 12:34:44;;;;;;;47.20;36.00;;;;;;;;;;5102197;28;21154;-43
2021/03/24 12:37:21;;;;;;;44.00;38.50;;;;;;;;;;5108485;28;21395;-43
2021/03/24 12:39:46;;;;;;;48.50;40.47;;;;;;;;;;5108734;28;20594;-43
2021/03/24 12:42:12;;;;;;;46.27;38.83;;;;;;;;;;5108831;28;21013;-43
2021/03/24 12:44:41;;;;;;;45.43;39.30;;;;;;;;;;5109070;27;20205;-43
2021/03/24 12:47:25;;;;;;;46.00;37.27;;;;;;;;;;5108765;28;20181;-43
2021/03/24 12:50:04;;;;;;;49.60;40.40;;;;;;;;;;5108042;28;20592;-43
2021/03/24 12:52:31;;;;;;;46.90;36.83;;;;;;;;;;5107382;28;20991;-43
2021/03/24 12:54:56;;;;;;;44.43;37.87;;;;;;;;;;5108183;28;20636;-43
2021/03/24 12:57:27;;;;;;;51.17;39.00;;;;;;;;;;5108081;28;21191;-43
2021/03/24 12:59:55;;;;;;;43.50;35.60;;;;;;;;;;5108378;28;20173;-43
2021/03/24 13:02:39;;;;;;;42.07;35.60;;;;;;;;;;5108363;28;20633;-44
2021/03/24 13:05:04;;;;;;;42.30;35.30;;;;;;;;;;5108680;28;20593;-43
2021/03/24 13:07:38;;;;;;;43.33;34.38;;;;;;;;;;5108124;28;20665;-44
2021/03/24 13:10:22;;;;;;;39.50;33.20;;;;;;;;;;5107916;28;20173;-43
2021/03/24 13:12:47;;;;;;;40.17;33.63;;;;;;;;;;5108730;28;20645;-43
2021/03/24 13:15:22;;;;;;;41.90;34.97;;;;;;;;;;5108949;28;20580;-44
2021/03/24 13:17:47;;;;;;;44.70;36.77;;;;;;;;;;5108824;28;20193;-43
2021/03/24 13:20:19;;;;;;;41.17;34.60;;;;;;;;;;5106819;28;20627;-43
2021/03/24 13:22:51;;;;;;;48.00;37.40;;;;;;;;;;5108662;28;20174;-43
2021/03/24 13:25:22;;;;;;;41.50;35.40;;;;;;;;;;5108076;28;20607;-42
2021/03/24 13:28:02;;;;;;;42.10;35.17;;;;;;;;;;5108888;28;20592;-43
2021/03/24 13:30:41;;;;;;;45.10;37.73;;;;;;;;;;5107238;28;20600;-43
2021/03/24 13:33:16;;;;;;;42.10;36.30;;;;;;;;;;5105135;28;21482;-43
2021/03/24 13:35:46;;;;;;;39.53;33.33;;;;;;;;;;5108561;28;20602;-44
2021/03/24 13:38:23;;;;;;;40.30;35.90;;;;;;;;;;5108185;28;20596;-44
2021/03/24 13:40:48;;;;;;;40.10;34.53;;;;;;;;;;5107954;28;20616;-43
2021/03/24 13:43:29;;;;;;;43.33;36.20;;;;;;;;;;5108375;28;20647;-43
2021/03/24 13:45:58;;;;;;;40.40;33.97;;;;;;;;;;5108498;28;20165;-42
2021/03/24 13:48:32;;;;;;;40.53;34.37;;;;;;;;;;5107561;28;20599;-42
2021/03/24 13:51:08;;;;;;;37.80;32.90;;;;;;;;;;5108328;28;20612;-42
2021/03/24 13:53:50;;;;;;;43.97;35.90;;;;;;;;;;5107223;28;20611;-42
2021/03/24 13:56:27;;;;;;;36.93;32.70;;;;;;;;;;5107921;28;20651;-43
2021/03/24 13:58:53;;;;;;;39.70;33.70;;;;;;;;;;5108166;28;20707;-43
2021/03/24 14:01:22;;;;;;;38.80;33.60;;;;;;;;;;5107263;28;21489;-42
2021/03/24 14:03:50;;;;;;;38.60;32.30;;;;;;;;;;5109529;28;20198;-42
2021/03/24 14:06:34;;;;;;;38.17;32.47;;;;;;;;;;5111612;28;20688;-42
2021/03/24 14:09:16;;;;;;;40.27;34.17;;;;;;;;;;5111515;28;20596;-42
2021/03/24 14:11:55;;;;;;;37.93;33.47;;;;;;;;;;5111743;28;20689;-42
2021/03/24 14:14:41;;;;;;;41.43;34.30;;;;;;;;;;5111403;28;20602;-43
2021/03/24 14:17:15;;;;;;;38.07;30.83;;;;;;;;;;5111062;28;20607;-43
2021/03/24 14:19:54;;;;;;;41.60;34.47;;;;;;;;;;5111502;28;20661;-42
2021/03/24 14:22:20;;;;;;;41.40;33.70;;;;;;;;;;5111533;28;20665;-43
2021/03/24 14:24:49;;;;;;;40.53;33.50;;;;;;;;;;5093495;28;20642;-44
2021/03/24 14:27:28;;;;;;;40.07;32.50;;;;;;;;;;5109374;28;20588;-44
2021/03/24 14:29:59;;;;;;;36.27;31.97;;;;;;;;;;5107005;28;20691;-43
2021/03/24 14:32:30;;;;;;;37.53;32.53;;;;;;;;;;5111029;28;21225;-43
2021/03/24 14:34:58;;;;;;;39.90;33.53;;;;;;;;;;5111666;28;20581;-44
2021/03/24 14:37:26;;;;;;;38.70;32.30;;;;;;;;;;5111053;28;20595;-43
2021/03/24 14:40:00;;;;;;;42.60;31.90;;;;;;;;;;5111032;28;20705;-43
2021/03/24 14:42:31;;;;;;;43.33;35.47;;;;;;;;;;5110887;28;21176;-43